createdAt,value
2019-01-11T00:01:50.927Z,19.50
2019-01-11T00:04:19.333Z,13.07
2019-01-11T00:06:48.762Z,16.60
2019-01-11T00:09:18.344Z,15.00
2019-01-11T00:11:49.870Z,15.73
2019-01-11T00:14:18.003Z,17.83
2019-01-11T00:16:46.081Z,13.33
2019-01-11T00:19:15.135Z,19.27
2019-01-11T00:21:43.747Z,21.93
2019-01-11T00:24:11.958Z,15.23
2019-01-11T00:26:39.974Z,10.90
2019-01-11T00:29:08.566Z,20.67
2019-01-11T00:31:36.467Z,12.90
2019-01-11T00:34:05.361Z,20.13
2019-01-11T00:36:34.064Z,21.93
2019-01-11T00:39:02.113Z,19.03
2019-01-11T00:41:30.190Z,19.10
2019-01-11T00:43:59.377Z,23.43
2019-01-11T00:46:27.334Z,14.37
2019-01-11T00:48:55.639Z,22.10
2019-01-11T00:51:23.682Z,22.40
2019-01-11T00:53:51.767Z,19.97
2019-01-11T00:56:20.467Z,17.60
2019-01-11T00:58:48.493Z,17.33
2019-01-11T01:01:16.741Z,16.63
2019-01-11T01:03:44.967Z,17.07
2019-01-11T01:06:13.310Z,25.43
2019-01-11T01:08:41.762Z,25.60
2019-01-11T01:11:10.229Z,13.37
2019-01-11T01:13:38.416Z,15.77
2019-01-11T01:16:06.619Z,23.63
2019-01-11T01:18:34.710Z,21.70
2019-01-11T01:21:03.067Z,25.43
2019-01-11T01:23:31.697Z,17.13
2019-01-11T01:25:59.833Z,13.63
2019-01-11T01:28:28.141Z,15.27
2019-01-11T01:30:56.550Z,23.30
2019-01-11T01:33:24.697Z,16.67
2019-01-11T01:35:53.296Z,24.70
2019-01-11T01:38:22.074Z,15.30
2019-01-11T01:40:50.351Z,17.53
2019-01-11T01:43:18.690Z,23.13
2019-01-11T01:45:46.808Z,20.37
2019-01-11T01:48:15.217Z,22.30
2019-01-11T01:50:43.567Z,23.50
2019-01-11T01:53:11.593Z,13.97
2019-01-11T01:55:39.661Z,18.03
2019-01-11T01:58:08.031Z,17.10
2019-01-11T02:00:36.215Z,14.97
2019-01-11T02:03:04.684Z,19.53
2019-01-11T02:05:33.178Z,15.40
2019-01-11T02:08:01.581Z,32.33
2019-01-11T02:10:29.656Z,27.47
2019-01-11T02:12:58.940Z,18.20
2019-01-11T02:15:27.810Z,20.97
2019-01-11T02:17:56.013Z,10.93
2019-01-11T02:20:24.066Z,24.23
2019-01-11T02:22:52.772Z,18.57
2019-01-11T02:25:20.924Z,18.27
2019-01-11T02:27:48.897Z,18.33
2019-01-11T02:30:21.475Z,11.90
2019-01-11T02:32:52.967Z,16.00
2019-01-11T02:35:20.174Z,17.63
2019-01-11T02:37:48.341Z,13.37
2019-01-11T02:40:16.474Z,18.60
2019-01-11T02:42:44.505Z,18.27
2019-01-11T02:45:14.840Z,19.30
2019-01-11T02:47:43.409Z,18.30
2019-01-11T02:50:12.764Z,10.70
2019-01-11T02:52:41.560Z,16.77
2019-01-11T02:55:10.671Z,19.27
2019-01-11T02:57:38.971Z,14.93
2019-01-11T03:00:11.400Z,14.87
2019-01-11T03:02:39.725Z,13.50
2019-01-11T03:05:08.633Z,12.07
2019-01-11T03:07:36.772Z,18.40
2019-01-11T03:10:06.673Z,14.80
2019-01-11T03:12:35.525Z,17.17
2019-01-11T03:15:04.494Z,23.83
2019-01-11T03:17:33.366Z,14.67
2019-01-11T03:20:01.840Z,13.73
2019-01-11T03:22:29.923Z,13.67
2019-01-11T03:24:58.181Z,14.40
2019-01-11T03:27:26.870Z,12.57
2019-01-11T03:29:55.281Z,11.37
2019-01-11T03:32:23.851Z,15.20
2019-01-11T03:35:10.373Z,14.17
2019-01-11T03:37:38.518Z,18.67
2019-01-11T03:40:07.987Z,12.57
2019-01-11T03:42:36.651Z,13.60
2019-01-11T03:45:06.581Z,18.10
2019-01-11T03:47:35.149Z,21.40
2019-01-11T03:50:04.030Z,18.67
2019-01-11T03:52:32.191Z,22.50
2019-01-11T03:55:00.564Z,16.10
2019-01-11T03:57:29.532Z,16.13
2019-01-11T03:59:57.755Z,17.47
2019-01-11T04:02:25.672Z,16.57
2019-01-11T04:04:54.356Z,18.10
2019-01-11T04:07:23.053Z,17.20
2019-01-11T04:09:51.727Z,21.50
2019-01-11T04:12:20.214Z,15.27
2019-01-11T04:14:49.712Z,15.63
2019-01-11T04:17:18.380Z,19.17
2019-01-11T04:19:47.382Z,16.27
2019-01-11T04:22:26.114Z,24.27
2019-01-11T04:25:04.678Z,26.97
2019-01-11T04:27:33.076Z,14.13
2019-01-11T04:30:01.294Z,18.97
2019-01-11T04:32:29.898Z,13.53
2019-01-11T04:34:58.229Z,17.67
2019-01-11T04:37:26.957Z,23.83
2019-01-11T04:39:55.317Z,24.80
2019-01-11T04:42:23.682Z,31.70
2019-01-11T04:44:52.068Z,21.07
2019-01-11T04:47:20.792Z,14.70
2019-01-11T04:49:49.172Z,23.70
2019-01-11T04:52:17.507Z,18.30
2019-01-11T04:54:46.263Z,19.37
2019-01-11T04:57:14.785Z,18.17
2019-01-11T04:59:43.386Z,22.03
2019-01-11T05:02:12.830Z,28.47
2019-01-11T05:04:41.049Z,31.07
2019-01-11T05:07:09.412Z,24.43
2019-01-11T05:09:38.050Z,19.47
2019-01-11T05:12:06.082Z,28.07
2019-01-11T05:14:34.250Z,21.83
2019-01-11T05:17:02.545Z,27.97
2019-01-11T05:19:30.877Z,24.20
2019-01-11T05:21:59.107Z,26.40
2019-01-11T05:24:27.152Z,24.17
2019-01-11T05:26:55.570Z,21.40
2019-01-11T05:29:23.509Z,28.70
2019-01-11T05:31:51.576Z,22.60
2019-01-11T05:34:19.761Z,36.57
2019-01-11T05:36:47.692Z,31.00
2019-01-11T05:39:16.065Z,34.57
2019-01-11T05:41:45.094Z,38.03
2019-01-11T05:44:13.146Z,28.07
2019-01-11T05:46:41.855Z,31.73
2019-01-11T05:49:11.023Z,25.27
2019-01-11T05:51:39.536Z,19.67
2019-01-11T05:54:07.954Z,23.53
2019-01-11T05:56:35.965Z,36.20
2019-01-11T05:59:06.446Z,31.83
2019-01-11T06:01:34.510Z,29.30
2019-01-11T06:04:13.390Z,33.20
2019-01-11T06:07:08.979Z,24.07
2019-01-11T06:09:37.219Z,28.20
2019-01-11T06:12:06.207Z,35.10
2019-01-11T06:14:34.548Z,18.63
2019-01-11T06:17:02.664Z,19.53
2019-01-11T06:19:31.189Z,20.10
2019-01-11T06:21:59.358Z,26.80
2019-01-11T06:24:27.537Z,20.07
2019-01-11T06:26:55.540Z,30.67
2019-01-11T06:29:23.885Z,30.00
2019-01-11T06:31:52.762Z,22.80
2019-01-11T06:34:21.090Z,27.03
2019-01-11T06:36:49.034Z,20.50
2019-01-11T06:39:17.194Z,20.43
2019-01-11T06:41:51.950Z,29.00
2019-01-11T06:44:20.021Z,28.13
2019-01-11T06:46:48.570Z,30.23
2019-01-11T06:49:16.892Z,17.60
2019-01-11T06:51:44.833Z,27.00
2019-01-11T06:54:13.342Z,28.63
2019-01-11T06:56:41.166Z,24.67
2019-01-11T06:59:12.131Z,26.53
2019-01-11T07:01:40.165Z,28.20
2019-01-11T07:04:10.457Z,25.13
2019-01-11T07:06:39.069Z,23.90
2019-01-11T07:09:08.385Z,21.93
2019-01-11T07:11:36.600Z,21.73
2019-01-11T07:14:04.921Z,31.50
2019-01-11T07:16:33.529Z,23.10
2019-01-11T07:19:03.321Z,33.17
2019-01-11T07:21:31.210Z,32.83
2019-01-11T07:23:59.261Z,32.00
2019-01-11T07:26:27.340Z,27.60
2019-01-11T07:28:55.540Z,21.33
2019-01-11T07:31:29.846Z,27.03
2019-01-11T07:33:58.500Z,27.33
2019-01-11T07:36:30.944Z,23.63
2019-01-11T07:38:59.273Z,25.13
2019-01-11T07:41:28.043Z,30.07
2019-01-11T07:43:56.777Z,26.77
2019-01-11T07:46:25.358Z,30.33
2019-01-11T07:48:53.879Z,20.07
2019-01-11T07:51:22.506Z,26.83
2019-01-11T07:53:51.191Z,26.53
2019-01-11T07:56:19.593Z,30.57
2019-01-11T07:58:47.665Z,39.83
2019-01-11T08:01:16.341Z,28.60
2019-01-11T08:03:44.403Z,24.67
2019-01-11T08:06:12.786Z,27.27
2019-01-11T08:08:41.108Z,27.30
2019-01-11T08:11:09.545Z,27.80
2019-01-11T08:13:37.708Z,38.87
2019-01-11T08:16:06.757Z,54.30
2019-01-11T08:18:35.385Z,47.57
2019-01-11T08:21:03.814Z,28.97
2019-01-11T08:23:32.089Z,27.83
2019-01-11T08:26:00.216Z,25.10
2019-01-11T08:28:39.603Z,26.63
2019-01-11T08:31:08.281Z,25.27
2019-01-11T08:33:37.105Z,25.80
2019-01-11T08:36:08.451Z,27.37
2019-01-11T08:38:36.906Z,22.50
2019-01-11T08:41:07.369Z,23.33
2019-01-11T08:43:35.636Z,26.30
2019-01-11T08:46:04.406Z,19.47
2019-01-11T08:48:32.738Z,27.63
2019-01-11T08:51:02.784Z,25.87
2019-01-11T08:53:35.217Z,20.73
2019-01-11T08:56:08.496Z,25.30
2019-01-11T08:58:36.764Z,34.50
2019-01-11T09:01:06.258Z,39.17
2019-01-11T09:03:34.386Z,55.47
2019-01-11T09:06:02.551Z,157.03
2019-01-11T09:08:30.597Z,68.87
2019-01-11T09:11:08.213Z,33.47
2019-01-11T09:13:36.562Z,34.63
2019-01-11T09:16:05.133Z,27.70
2019-01-11T09:18:43.285Z,25.07
2019-01-11T09:21:12.138Z,23.70
2019-01-11T09:23:41.717Z,26.53
2019-01-11T09:26:10.452Z,33.07
2019-01-11T09:28:40.676Z,26.03
2019-01-11T09:31:09.289Z,26.93
2019-01-11T09:33:37.206Z,37.97
2019-01-11T09:36:05.180Z,26.37
2019-01-11T09:38:33.432Z,31.57
2019-01-11T09:41:01.921Z,31.33
2019-01-11T09:43:31.054Z,34.70
2019-01-11T09:45:58.899Z,27.17
2019-01-11T09:48:27.144Z,30.33
2019-01-11T09:50:55.346Z,27.23
2019-01-11T09:53:23.916Z,28.63
2019-01-11T09:55:52.168Z,33.20
2019-01-11T09:58:20.725Z,36.47
2019-01-11T10:00:59.119Z,30.83
2019-01-11T10:03:24.332Z,32.77
2019-01-11T10:05:52.489Z,31.67
2019-01-11T10:08:21.721Z,40.63
2019-01-11T10:10:49.848Z,35.20
2019-01-11T10:13:17.838Z,33.47
2019-01-11T10:15:46.002Z,36.87
2019-01-11T10:18:14.029Z,39.30
2019-01-11T10:20:42.454Z,37.20
2019-01-11T10:23:10.814Z,30.57
2019-01-11T10:25:40.060Z,47.10
2019-01-11T10:28:08.429Z,43.07
2019-01-11T10:30:36.911Z,35.67
2019-01-11T10:33:05.691Z,32.83
2019-01-11T10:35:34.560Z,42.63
2019-01-11T10:38:04.410Z,37.17
2019-01-11T10:40:32.483Z,32.23
2019-01-11T10:43:00.785Z,36.00
2019-01-11T10:45:29.012Z,42.13
2019-01-11T10:47:58.348Z,44.00
2019-01-11T10:50:26.355Z,32.90
2019-01-11T10:52:54.978Z,42.13
2019-01-11T10:55:24.187Z,37.53
2019-01-11T10:57:52.831Z,44.73
2019-01-11T11:00:26.868Z,45.27
2019-01-11T11:02:56.386Z,46.17
2019-01-11T11:05:24.901Z,35.67
2019-01-11T11:07:53.120Z,37.80
2019-01-11T11:10:21.299Z,40.63
2019-01-11T11:12:49.151Z,39.70
2019-01-11T11:15:17.611Z,43.13
2019-01-11T11:17:46.081Z,38.83
2019-01-11T11:20:16.302Z,34.27
2019-01-11T11:22:45.734Z,41.33
2019-01-11T11:25:17.070Z,36.37
2019-01-11T11:27:45.486Z,26.60
2019-01-11T11:30:14.318Z,36.67
2019-01-11T11:33:07.970Z,38.97
2019-01-11T11:35:36.977Z,28.00
2019-01-11T11:38:05.916Z,36.10
2019-01-11T11:40:34.390Z,34.77
2019-01-11T11:43:03.126Z,26.87
2019-01-11T11:45:32.241Z,25.77
2019-01-11T11:48:00.753Z,27.00
2019-01-11T11:50:29.374Z,27.67
2019-01-11T11:52:57.850Z,26.40
2019-01-11T11:55:26.186Z,31.07
2019-01-11T11:57:54.955Z,24.27
2019-01-11T12:00:25.769Z,25.73
2019-01-11T12:02:54.133Z,26.13
2019-01-11T12:05:22.583Z,31.53
2019-01-11T12:07:50.829Z,29.90
2019-01-11T12:10:19.635Z,38.48
2019-01-11T12:12:47.865Z,27.33
2019-01-11T12:15:16.571Z,23.83
2019-01-11T12:17:44.440Z,29.67
2019-01-11T12:20:17.242Z,26.03
2019-01-11T12:22:47.168Z,31.90
2019-01-11T12:25:16.691Z,31.87
2019-01-11T12:27:44.411Z,26.20
2019-01-11T12:30:13.681Z,32.30
2019-01-11T12:32:42.760Z,27.90
2019-01-11T12:35:14.385Z,29.10
2019-01-11T12:37:42.463Z,24.23
2019-01-11T12:40:11.140Z,26.23
2019-01-11T12:42:39.341Z,27.10
2019-01-11T12:45:09.027Z,27.67
2019-01-11T12:47:37.174Z,51.97
2019-01-11T12:50:09.528Z,31.30
2019-01-11T12:52:37.249Z,28.75
2019-01-11T12:55:05.804Z,29.57
2019-01-11T12:57:37.250Z,39.33
2019-01-11T13:00:06.494Z,28.40
2019-01-11T13:02:34.605Z,25.30
2019-01-11T13:05:03.572Z,26.07
2019-01-11T13:07:31.243Z,35.13
2019-01-11T13:10:01.189Z,24.77
2019-01-11T13:12:29.561Z,27.77
2019-01-11T13:14:58.807Z,39.67
2019-01-11T13:17:26.477Z,24.03
2019-01-11T13:19:54.345Z,31.30
2019-01-11T13:22:22.805Z,23.07
2019-01-11T13:24:50.907Z,26.73
2019-01-11T13:27:18.669Z,24.27
2019-01-11T13:29:47.814Z,28.27
2019-01-11T13:32:17.041Z,23.20
2019-01-11T13:34:47.525Z,27.53
2019-01-11T13:37:15.281Z,28.07
2019-01-11T13:39:45.018Z,24.57
2019-01-11T13:42:14.020Z,24.97
2019-01-11T13:44:43.176Z,26.90
2019-01-11T13:47:11.106Z,33.03
2019-01-11T13:49:38.883Z,32.67
2019-01-11T13:52:08.576Z,26.03
2019-01-11T13:54:36.280Z,32.67
2019-01-11T13:57:04.019Z,27.07
2019-01-11T13:59:34.344Z,38.27
2019-01-11T14:02:02.108Z,34.40
2019-01-11T14:04:29.843Z,28.30
2019-01-11T14:06:59.280Z,29.77
2019-01-11T14:09:28.719Z,26.37
2019-01-11T14:11:58.540Z,24.17
2019-01-11T14:14:26.862Z,27.53
2019-01-11T14:16:57.763Z,29.77
2019-01-11T14:19:25.466Z,28.97
2019-01-11T14:21:53.192Z,24.70
2019-01-11T14:24:20.906Z,29.70
2019-01-11T14:26:50.318Z,24.20
2019-01-11T14:29:21.156Z,34.17
2019-01-11T14:31:56.286Z,26.70
2019-01-11T14:34:24.052Z,27.57
2019-01-11T14:36:51.756Z,33.10
2019-01-11T14:39:19.493Z,25.17
2019-01-11T14:41:47.161Z,24.00
2019-01-11T14:44:15.609Z,31.17
2019-01-11T14:46:43.656Z,30.63
2019-01-11T14:49:13.478Z,25.43
2019-01-11T14:51:41.559Z,33.77
2019-01-11T14:54:14.182Z,28.97
2019-01-11T14:56:41.947Z,27.10
2019-01-11T14:59:10.007Z,33.73
2019-01-11T15:01:39.683Z,25.40
2019-01-11T15:04:07.462Z,32.83
2019-01-11T15:06:35.297Z,35.37
2019-01-11T15:09:08.826Z,27.47
2019-01-11T15:11:39.400Z,30.67
2019-01-11T15:14:09.202Z,25.73
2019-01-11T15:16:38.233Z,35.07
2019-01-11T15:19:07.331Z,38.40
2019-01-11T15:21:35.384Z,27.03
2019-01-11T15:24:03.256Z,32.73
2019-01-11T15:26:31.009Z,25.57
2019-01-11T15:28:59.067Z,32.60
2019-01-11T15:31:27.583Z,39.07
2019-01-11T15:33:55.315Z,30.23
2019-01-11T15:36:23.206Z,32.17
2019-01-11T15:38:53.730Z,34.97
2019-01-11T15:41:21.393Z,34.53
2019-01-11T15:43:49.178Z,25.33
2019-01-11T15:46:17.000Z,38.30
2019-01-11T15:48:47.430Z,34.30
2019-01-11T15:51:17.658Z,112.27
2019-01-11T15:53:52.881Z,31.40
2019-01-11T15:56:29.721Z,42.07
2019-01-11T15:58:58.649Z,41.43
2019-01-11T16:01:29.769Z,37.93
2019-01-11T16:03:57.517Z,30.37
2019-01-11T16:06:37.738Z,38.37
2019-01-11T16:10:03.388Z,35.43
2019-01-11T16:13:27.992Z,45.77
2019-01-11T16:16:11.867Z,41.50
2019-01-11T16:18:39.547Z,43.00
2019-01-11T16:21:11.237Z,44.40
2019-01-11T16:23:38.924Z,50.70
2019-01-11T16:26:06.613Z,54.93
2019-01-11T16:28:37.431Z,52.97
2019-01-11T16:31:05.628Z,48.07
2019-01-11T16:33:35.134Z,50.30
2019-01-11T16:36:03.543Z,45.07
2019-01-11T16:38:31.641Z,47.33
2019-01-11T16:40:59.612Z,53.27
2019-01-11T16:43:28.704Z,54.23
2019-01-11T16:45:57.512Z,44.43
2019-01-11T16:48:26.805Z,41.50
2019-01-11T16:50:58.270Z,57.90
2019-01-11T16:53:25.984Z,52.47
2019-01-11T16:55:56.872Z,58.00
2019-01-11T16:58:27.280Z,47.73
2019-01-11T17:00:55.010Z,51.40
2019-01-11T17:03:26.745Z,51.10
2019-01-11T17:05:54.466Z,45.83
2019-01-11T17:08:24.813Z,55.23
2019-01-11T17:10:52.494Z,47.27
2019-01-11T17:13:23.403Z,44.73
2019-01-11T17:15:51.085Z,57.43
2019-01-11T17:18:19.447Z,49.40
2019-01-11T17:20:47.426Z,47.27
2019-01-11T17:23:16.074Z,44.90
2019-01-11T17:25:44.212Z,48.83
2019-01-11T17:28:13.170Z,64.92
2019-01-11T17:30:41.742Z,59.17
2019-01-11T17:33:09.736Z,59.60
2019-01-11T17:35:38.190Z,53.43
2019-01-11T17:38:08.428Z,52.80
2019-01-11T17:40:37.572Z,51.50
2019-01-11T17:43:08.519Z,47.37
2019-01-11T17:45:38.089Z,53.93
2019-01-11T17:48:07.337Z,58.37
2019-01-11T17:50:36.430Z,66.28
2019-01-11T17:53:04.786Z,63.80
2019-01-11T17:55:32.824Z,57.23
2019-01-11T17:58:01.014Z,54.73
2019-01-11T18:00:30.630Z,59.30
2019-01-11T18:02:59.349Z,54.20
2019-01-11T18:05:28.645Z,50.30
2019-01-11T18:07:56.889Z,55.97
2019-01-11T18:10:25.271Z,65.07
2019-01-11T18:12:53.584Z,68.53
2019-01-11T18:15:22.677Z,86.87
2019-01-11T18:17:50.731Z,121.65
2019-01-11T18:20:21.304Z,85.00
2019-01-11T18:22:49.173Z,115.90
2019-01-11T18:25:19.367Z,113.37
2019-01-11T18:27:51.116Z,107.87
2019-01-11T18:30:19.858Z,107.50
2019-01-11T18:32:47.668Z,97.20
2019-01-11T18:35:17.172Z,120.97
2019-01-11T18:37:45.291Z,106.23
2019-01-11T18:40:19.847Z,101.33
2019-01-11T18:42:48.483Z,104.17
2019-01-11T18:45:19.766Z,100.33
2019-01-11T18:47:48.162Z,78.90
2019-01-11T18:50:18.312Z,87.07
2019-01-11T18:52:46.401Z,74.13
2019-01-11T18:55:14.859Z,71.77
2019-01-11T18:57:43.444Z,76.17
2019-01-11T19:00:21.970Z,70.03
2019-01-11T19:02:51.125Z,58.80
2019-01-11T19:05:19.352Z,63.23
2019-01-11T19:07:48.019Z,52.60
2019-01-11T19:10:17.448Z,68.30
2019-01-11T19:12:45.468Z,60.63
2019-01-11T19:15:33.993Z,67.63
2019-01-11T19:18:01.724Z,52.23
2019-01-11T19:20:30.721Z,56.87
2019-01-11T19:22:59.824Z,53.93
2019-01-11T19:25:28.238Z,53.33
2019-01-11T19:27:55.931Z,52.67
2019-01-11T19:30:29.113Z,59.20
2019-01-11T19:32:57.406Z,55.37
2019-01-11T19:35:26.316Z,63.27
2019-01-11T19:37:54.873Z,62.33
2019-01-11T19:40:22.916Z,53.00
2019-01-11T19:42:51.253Z,58.77
2019-01-11T19:45:19.522Z,61.03
2019-01-11T19:47:48.345Z,67.63
2019-01-11T19:50:18.657Z,59.30
2019-01-11T19:52:47.222Z,58.40
2019-01-11T19:55:15.987Z,62.00
2019-01-11T19:57:44.566Z,58.43
2019-01-11T20:00:18.583Z,54.57
2019-01-11T20:02:48.655Z,57.07
2019-01-11T20:05:17.119Z,66.20
2019-01-11T20:07:45.923Z,60.13
2019-01-11T20:10:17.775Z,62.10
2019-01-11T20:12:45.862Z,62.13
2019-01-11T20:15:14.614Z,54.53
2019-01-11T20:17:43.034Z,61.37
2019-01-11T20:20:11.801Z,57.33
2019-01-11T20:22:39.493Z,61.30
2019-01-11T20:25:11.832Z,53.47
2019-01-11T20:27:39.569Z,59.57
2019-01-11T20:30:10.261Z,66.17
2019-01-11T20:32:38.018Z,56.00
2019-01-11T20:35:14.276Z,54.13
2019-01-11T20:37:42.879Z,50.43
2019-01-11T20:40:12.531Z,53.37
2019-01-11T20:42:40.251Z,50.63
2019-01-11T20:45:10.825Z,46.37
2019-01-11T20:47:38.845Z,51.77
2019-01-11T20:50:10.089Z,54.80
2019-01-11T20:52:38.251Z,51.43
2019-01-11T20:55:06.103Z,57.23
2019-01-11T20:57:34.202Z,50.87
2019-01-11T21:00:03.238Z,60.93
2019-01-11T21:02:31.421Z,48.00
2019-01-11T21:04:59.665Z,52.43
2019-01-11T21:07:27.703Z,50.13
2019-01-11T21:09:55.988Z,52.80
2019-01-11T21:12:24.048Z,53.70
2019-01-11T21:14:51.898Z,55.17
2019-01-11T21:17:20.365Z,53.37
2019-01-11T21:19:48.087Z,56.33
2019-01-11T21:22:16.717Z,55.63
2019-01-11T21:24:44.917Z,51.80
2019-01-11T21:27:12.890Z,59.30
2019-01-11T21:29:41.105Z,52.33
2019-01-11T21:32:09.195Z,56.53
2019-01-11T21:34:38.001Z,55.17
2019-01-11T21:37:05.762Z,58.37
2019-01-11T21:39:34.619Z,66.90
2019-01-11T21:42:02.856Z,61.93
2019-01-11T21:44:30.925Z,67.63
2019-01-11T21:46:58.623Z,59.57
2019-01-11T21:49:26.393Z,58.73
2019-01-11T21:51:54.090Z,55.60
2019-01-11T21:54:22.766Z,59.67
2019-01-11T21:56:50.485Z,55.83
2019-01-11T21:59:18.672Z,59.97
2019-01-11T22:01:46.322Z,55.17
2019-01-11T22:04:14.007Z,58.00
2019-01-11T22:06:41.768Z,62.47
2019-01-11T22:09:09.457Z,51.20
2019-01-11T22:11:37.149Z,56.87
2019-01-11T22:14:05.291Z,60.50
2019-01-11T22:16:33.498Z,57.93
2019-01-11T22:19:01.753Z,69.20
2019-01-11T22:21:29.459Z,57.67
2019-01-11T22:24:03.035Z,57.00
2019-01-11T22:26:27.397Z,57.53
2019-01-11T22:28:55.117Z,56.60
2019-01-11T22:31:22.895Z,56.30
2019-01-11T22:33:50.608Z,50.90
2019-01-11T22:36:19.593Z,58.73
2019-01-11T22:38:47.296Z,65.33
2019-01-11T22:41:17.988Z,50.03
2019-01-11T22:43:45.939Z,57.70
2019-01-11T22:46:13.626Z,56.17
2019-01-11T22:48:41.317Z,49.70
2019-01-11T22:51:09.120Z,66.73
2019-01-11T22:53:36.859Z,48.80
2019-01-11T22:56:05.074Z,62.47
2019-01-11T22:58:33.176Z,56.47
2019-01-11T23:01:11.263Z,51.90
2019-01-11T23:03:42.777Z,56.13
2019-01-11T23:06:26.947Z,57.13
2019-01-11T23:08:54.671Z,60.67
2019-01-11T23:11:51.670Z,51.23
2019-01-11T23:14:19.451Z,54.73
2019-01-11T23:17:09.943Z,59.80
2019-01-11T23:19:37.693Z,57.87
2019-01-11T23:22:05.566Z,58.47
2019-01-11T23:24:33.318Z,56.33
2019-01-11T23:27:01.087Z,57.63
2019-01-11T23:29:28.865Z,53.93
2019-01-11T23:31:56.599Z,58.40
2019-01-11T23:34:24.299Z,61.07
2019-01-11T23:36:52.392Z,50.80
2019-01-11T23:39:20.519Z,62.47
2019-01-11T23:41:48.246Z,53.30
2019-01-11T23:44:16.353Z,55.33
2019-01-11T23:46:44.252Z,58.43
2019-01-11T23:49:12.057Z,58.90
2019-01-11T23:51:40.240Z,60.17
2019-01-11T23:54:08.029Z,53.73
2019-01-11T23:56:35.720Z,67.63
2019-01-11T23:59:03.821Z,53.80
